June 30, 2022

Time Code Weather Temp. Visibility Ceiling Wind METAR/SPECI
5:50 am
V
63 °F 6¼ mi+ - Var Var 1 kt METAR EDDG 300350Z VRB01KT CAVOK 17/15 Q1011 NOSIG
5:20 am
V
64 °F 6¼ mi+ - Var Var 2 kt METAR EDDG 300320Z VRB02KT CAVOK 18/15 Q1011 NOSIG
4:50 am
V
66 °F 6¼ mi+ - 090° 090° 3 kt METAR EDDG 300250Z 09003KT 040V160 CAVOK 19/15 Q1011 NOSIG
4:20 am
V
66 °F 6¼ mi+ - 080° 080° 4 kt METAR EDDG 300220Z 08004KT 030V140 CAVOK 19/15 Q1012 NOSIG
3:50 am
V
66 °F 6¼ mi+ - 090° 090° 3 kt METAR EDDG 300150Z 09003KT 020V160 CAVOK 19/15 Q1012 NOSIG
3:20 am
V
66 °F 6¼ mi+ - 080° 080° 3 kt METAR EDDG 300120Z 08003KT 020V130 CAVOK 19/15 Q1012 NOSIG
2:50 am
V
66 °F 6¼ mi+ - Var Var 3 kt METAR EDDG 300050Z VRB03KT CAVOK 19/14 Q1012 NOSIG
2:20 am
V
66 °F 6¼ mi+ - 100° 100° 3 kt METAR EDDG 300020Z 10003KT 050V170 CAVOK 19/14 Q1012 NOSIG
1:50 am
V
66 °F 6¼ mi+ - Var Var 2 kt METAR EDDG 292350Z VRB02KT CAVOK 19/14 Q1012 NOSIG
1:20 am
V
66 °F 6¼ mi+ - Var Var 2 kt METAR EDDG 292320Z VRB02KT CAVOK 19/14 Q1012 NOSIG
12:50 am
V
68 °F 6¼ mi+ - 080° 080° 3 kt METAR EDDG 292250Z 08003KT 030V140 CAVOK 20/14 Q1012 NOSIG
12:20 am
V
68 °F 6¼ mi+ - 080° 080° 3 kt METAR EDDG 292220Z 08003KT 040V130 CAVOK 20/14 Q1012 NOSIG

June 29, 2022

Time Code Weather Temp. Visibility Ceiling Wind METAR/SPECI
11:50 pm
V
70 °F 6¼ mi+ - 080° 080° 3 kt METAR EDDG 292150Z 08003KT 020V130 CAVOK 21/14 Q1012 NOSIG
11:20 pm
V
70 °F 6¼ mi+ - 060° 060° 3 kt METAR EDDG 292120Z 06003KT 030V100 CAVOK 21/14 Q1012 NOSIG
10:50 pm
V
72 °F 6¼ mi+ - 060° 060° 3 kt METAR EDDG 292050Z 06003KT 020V110 CAVOK 22/14 Q1012 NOSIG
10:20 pm
V
73 °F 6¼ mi+ - 050° 050° 3 kt METAR EDDG 292020Z 05003KT 020V090 CAVOK 23/15 Q1012 NOSIG
9:50 pm
V
75 °F 6¼ mi+ - 080° 080° 3 kt METAR EDDG 291950Z 08003KT 360V130 CAVOK 24/14 Q1012 NOSIG
9:20 pm
V
75 °F 6¼ mi+ - Var Var 2 kt METAR EDDG 291920Z VRB02KT CAVOK 24/16 Q1012 NOSIG
8:50 pm
V
77 °F 6¼ mi+ - 350° 350° 3 kt METAR EDDG 291850Z 35003KT 320V030 CAVOK 25/15 Q1012 NOSIG
8:20 pm
V
79 °F 6¼ mi+ - 330° 330° 4 kt METAR EDDG 291820Z 33004KT 300V360 CAVOK 26/15 Q1012 NOSIG
7:50 pm
V
79 °F 6¼ mi+ - 310° 310° 3 kt METAR EDDG 291750Z 31003KT 270V350 CAVOK 26/15 Q1012 NOSIG
7:20 pm
V
81 °F 6¼ mi+ - 350° 350° 3 kt METAR EDDG 291720Z 35003KT 270V080 CAVOK 27/15 Q1012 NOSIG
6:50 pm
V
81 °F 6¼ mi+ - 160° 160° 4 kt METAR EDDG 291650Z 16004KT 080V220 CAVOK 27/14 Q1012 NOSIG
6:20 pm
V
82 °F 6¼ mi+ - Var Var 3 kt METAR EDDG 291620Z VRB03KT CAVOK 28/14 Q1012 NOSIG
5:50 pm
V
81 °F 6¼ mi+ - 210° 210° 3 kt METAR EDDG 291550Z 21003KT 130V280 9999 FEW048 27/14 Q1013 NOSIG
5:20 pm
V
81 °F 6¼ mi+ - 180° 180° 3 kt METAR EDDG 291520Z 18003KT 110V240 9999 FEW045 27/14 Q1013 NOSIG
4:50 pm
V
79 °F 6¼ mi+ - 090° 090° 5 kt METAR EDDG 291450Z 09005KT 030V150 CAVOK 26/14 Q1013 NOSIG
4:20 pm
V
79 °F 6¼ mi+ - Var Var 5 kt METAR EDDG 291420Z VRB05KT CAVOK 26/14 Q1013 NOSIG
3:50 pm
V
77 °F 6¼ mi+ - Var Var 4 kt METAR EDDG 291350Z VRB04KT CAVOK 25/14 Q1014 NOSIG
3:20 pm
V
75 °F 6¼ mi+ - 120° 120° 6 kt METAR EDDG 291320Z 12006KT 060V170 CAVOK 24/14 Q1014 NOSIG
2:50 pm
V
77 °F 6¼ mi+ - 150° 150° 6 kt METAR EDDG 291250Z 15006KT 100V200 CAVOK 25/14 Q1014 NOSIG
2:20 pm
V
77 °F 6¼ mi+ - 160° 160° 6 kt METAR EDDG 291220Z 16006KT 110V190 CAVOK 25/14 Q1014 NOSIG
1:50 pm
V
77 °F 6¼ mi+ - 150° 150° 9 kt METAR EDDG 291150Z 15009KT 110V200 CAVOK 25/13 Q1014 NOSIG
1:20 pm
V
77 °F 6¼ mi+ - 130° 130° 7 kt METAR EDDG 291120Z 13007KT 050V170 CAVOK 25/13 Q1014 NOSIG
12:50 pm
V
75 °F 6¼ mi+ - 140° 140° 6 kt METAR EDDG 291050Z 14006KT 090V180 CAVOK 24/12 Q1015 NOSIG
12:20 pm
V
75 °F 6¼ mi+ - 150° 150° 8 kt METAR EDDG 291020Z 15008KT 110V190 CAVOK 24/12 Q1015 NOSIG
11:50 am
V
73 °F 6¼ mi+ - 120° 120° 6 kt METAR EDDG 290950Z 12006KT 070V170 CAVOK 23/12 Q1015 NOSIG
11:20 am
V
73 °F 6¼ mi+ - 140° 140° 6 kt METAR EDDG 290920Z 14006KT 100V180 CAVOK 23/11 Q1015 NOSIG
10:50 am
V
73 °F 6¼ mi+ - 120° 120° 5 kt METAR EDDG 290850Z 12005KT 040V180 CAVOK 23/11 Q1015 NOSIG
10:20 am
V
73 °F 6¼ mi+ - Var Var 4 kt METAR EDDG 290820Z VRB04KT CAVOK 23/11 Q1015 NOSIG
9:50 am
V
72 °F 6¼ mi+ - 100° 100° 6 kt METAR EDDG 290750Z 10006KT 030V170 CAVOK 22/10 Q1015 NOSIG
9:20 am
V
73 °F 6¼ mi+ - 110° 110° 5 kt METAR EDDG 290720Z 11005KT 040V200 CAVOK 23/11 Q1015 NOSIG
8:50 am
V
70 °F 6¼ mi+ - 080° 080° 4 kt METAR EDDG 290650Z 08004KT 040V130 CAVOK 21/10 Q1015 NOSIG
8:20 am
V
66 °F 6¼ mi+ - Var Var 2 kt METAR EDDG 290620Z VRB02KT CAVOK 19/11 Q1015 NOSIG
7:50 am
V
63 °F 6¼ mi+ - Var Var 2 kt METAR EDDG 290550Z VRB02KT CAVOK 17/12 Q1015 NOSIG
7:20 am
V
57 °F 6¼ mi+ - Var Var 2 kt METAR EDDG 290520Z VRB02KT CAVOK 14/12 Q1015 NOSIG
6:50 am
V
54 °F 6¼ mi+ - 040° 040° 1 kt METAR EDDG 290450Z 04001KT CAVOK 12/11 Q1016 NOSIG
6:20 am
V
54 °F 6¼ mi+ - Var Var 1 kt METAR EDDG 290420Z VRB01KT CAVOK 12/11 Q1016 NOSIG
5:50 am
V
54 °F 6¼ mi+ - 050° 050° 2 kt METAR EDDG 290350Z 05002KT CAVOK 12/10 Q1016 NOSIG
5:20 am
V
54 °F 6¼ mi+ - 010° 010° 1 kt METAR EDDG 290320Z 01001KT CAVOK 12/10 Q1016 NOSIG
4:50 am
V
52 °F 6¼ mi+ - Var Var 1 kt METAR EDDG 290250Z VRB01KT CAVOK 11/10 Q1016 NOSIG
4:20 am
V
54 °F 6¼ mi+ - Var Var 1 kt METAR EDDG 290220Z VRB01KT CAVOK 12/10 Q1016 NOSIG
3:50 am
V
54 °F 6¼ mi+ - Var 000° 0 kt METAR EDDG 290150Z 00000KT CAVOK 12/10 Q1017 NOSIG
3:20 am
V
55 °F 6¼ mi+ - Var 000° 0 kt METAR EDDG 290120Z 00000KT CAVOK 13/11 Q1017 NOSIG
2:50 am
V
55 °F 6¼ mi+ - Var Var 2 kt METAR EDDG 290050Z VRB02KT CAVOK 13/11 Q1017 NOSIG
2:20 am
V
57 °F 6¼ mi+ - 030° 030° 2 kt METAR EDDG 290020Z 03002KT CAVOK 14/11 Q1017 NOSIG
1:50 am
V
59 °F 6¼ mi+ - 020° 020° 2 kt METAR EDDG 282350Z 02002KT CAVOK 15/11 Q1017 NOSIG
1:20 am
V
61 °F 6¼ mi+ - 060° 060° 3 kt METAR EDDG 282320Z 06003KT 020V090 CAVOK 16/11 Q1018 NOSIG
12:50 am
V
63 °F 6¼ mi+ - 050° 050° 3 kt METAR EDDG 282250Z 05003KT CAVOK 17/11 Q1018 NOSIG
12:20 am
V
63 °F 6¼ mi+ - 060° 060° 3 kt METAR EDDG 282220Z 06003KT 020V100 CAVOK 17/11 Q1018 NOSIG

June 28, 2022

Time Code Weather Temp. Visibility Ceiling Wind METAR/SPECI
11:50 pm
V
63 °F 6¼ mi+ - 050° 050° 3 kt METAR EDDG 282150Z 05003KT CAVOK 17/12 Q1018 NOSIG
11:20 pm
V
63 °F 6¼ mi+ - 050° 050° 3 kt METAR EDDG 282120Z 05003KT CAVOK 17/11 Q1018 NOSIG
10:50 pm
V
64 °F 6¼ mi+ - 030° 030° 2 kt METAR EDDG 282050Z 03002KT CAVOK 18/11 Q1018 NOSIG
10:20 pm
V
66 °F 6¼ mi+ - Var Var 2 kt METAR EDDG 282020Z VRB02KT CAVOK 19/11 Q1018 NOSIG
9:50 pm
V
68 °F 6¼ mi+ - 020° 020° 2 kt METAR EDDG 281950Z 02002KT CAVOK 20/11 Q1018 NOSIG
9:20 pm
V
72 °F 6¼ mi+ - 070° 070° 2 kt METAR EDDG 281920Z 07002KT CAVOK 22/10 Q1018 NOSIG
8:50 pm
V
73 °F 6¼ mi+ - 090° 090° 3 kt METAR EDDG 281850Z 09003KT 360V160 CAVOK 23/10 Q1018 NOSIG
8:20 pm
V
75 °F 6¼ mi+ - Var Var 3 kt METAR EDDG 281820Z VRB03KT CAVOK 24/10 Q1018 NOSIG
7:50 pm
V
75 °F 6¼ mi+ - 110° 110° 4 kt METAR EDDG 281750Z 11004KT 050V190 CAVOK 24/09 Q1018 NOSIG
7:20 pm
V
75 °F 6¼ mi+ - Var Var 3 kt METAR EDDG 281720Z VRB03KT CAVOK 24/09 Q1018 NOSIG
6:50 pm
V
77 °F 6¼ mi+ - 200° 200° 4 kt METAR EDDG 281650Z 20004KT 140V260 CAVOK 25/09 Q1019 NOSIG
6:20 pm
V
77 °F 6¼ mi+ - 180° 180° 4 kt METAR EDDG 281620Z 18004KT 110V260 CAVOK 25/09 Q1019 NOSIG
5:50 pm
V
77 °F 6¼ mi+ - 230° 230° 5 kt METAR EDDG 281550Z 23005KT 140V290 CAVOK 25/09 Q1019 NOSIG
5:20 pm
V
73 °F 6¼ mi+ - 240° 240° 4 kt METAR EDDG 281520Z 24004KT 210V280 CAVOK 23/09 Q1019 NOSIG
4:50 pm
V
77 °F 6¼ mi+ - Var Var 5 kt METAR EDDG 281450Z VRB05KT CAVOK 25/09 Q1020 NOSIG
4:20 pm
V
77 °F 6¼ mi+ - Var Var 5 kt METAR EDDG 281420Z VRB05KT CAVOK 25/09 Q1020 NOSIG
3:50 pm
V
77 °F 6¼ mi+ - Var Var 5 kt METAR EDDG 281350Z VRB05KT CAVOK 25/10 Q1020 NOSIG
3:20 pm
V
75 °F 6¼ mi+ - 250° 250° 7 kt METAR EDDG 281320Z 25007KT 180V290 CAVOK 24/09 Q1020 NOSIG
2:50 pm
V
73 °F 6¼ mi+ - Var Var 4 kt METAR EDDG 281250Z VRB04KT CAVOK 23/09 Q1020 NOSIG
2:20 pm
V
73 °F 6¼ mi+ - 220° 220° 9 kt METAR EDDG 281220Z 22009KT 170V280 CAVOK 23/09 Q1021 NOSIG
1:50 pm
V
72 °F 6¼ mi+ - 170° 170° 5 kt METAR EDDG 281150Z 17005KT 120V250 9999 SCT046 22/10 Q1021 NOSIG
1:20 pm
V
73 °F 6¼ mi+ - 160° 160° 6 kt METAR EDDG 281120Z 16006KT 080V230 9999 SCT042 23/11 Q1021 NOSIG
12:50 pm
V
72 °F 6¼ mi+ - 180° 180° 9 kt METAR EDDG 281050Z 18009KT 140V290 9999 SCT040 22/11 Q1021 NOSIG
12:20 pm
V
72 °F 6¼ mi+ - 200° 200° 8 kt METAR EDDG 281020Z 20008KT 130V250 9999 SCT038 22/10 Q1021 NOSIG
11:50 am
V
70 °F 6¼ mi+ - 210° 210° 6 kt METAR EDDG 280950Z 21006KT 160V270 9999 SCT037 21/11 Q1022 NOSIG
11:20 am
V
68 °F 6¼ mi+ - 230° 230° 7 kt METAR EDDG 280920Z 23007KT 190V270 9999 FEW030 20/11 Q1022 NOSIG
10:50 am
V
66 °F 6¼ mi+ - 210° 210° 7 kt METAR EDDG 280850Z 21007KT 100V250 9999 FEW026 19/11 Q1022 NOSIG
10:20 am
V
66 °F 6¼ mi+ - 240° 240° 4 kt METAR EDDG 280820Z 24004KT 170V320 9999 FEW021 19/12 Q1022 NOSIG
9:50 am
V
64 °F 6¼ mi+ - 250° 250° 4 kt METAR EDDG 280750Z 25004KT 190V310 9999 FEW016 18/13 Q1022 NOSIG
9:20 am
V
63 °F 6¼ mi+ - 240° 240° 6 kt METAR EDDG 280720Z 24006KT 200V260 9999 FEW014 17/13 Q1022 NOSIG
8:50 am
V
61 °F 6¼ mi+ - 220° 220° 5 kt METAR EDDG 280650Z 22005KT 170V260 9999 FEW012 16/13 Q1022 NOSIG
8:20 am
V
59 °F 6¼ mi+ - 160° 160° 3 kt METAR EDDG 280620Z 16003KT 120V230 9999 FEW006 15/13 Q1022 BECMG 22005KT
7:50 am
M
57 °F 4⅜ mi - 130° 130° 3 kt METAR EDDG 280550Z 13003KT 100V160 7000 FEW003 14/13 Q1022 BECMG 22005KT
7:20 am
I
54 °F 1⅞ mi - 130° 130° 3 kt METAR EDDG 280520Z 13003KT 070V160 3000 1400NE R25/P2000N BR SCT002 12/12 Q1022 BECMG 9999
6:50 am
L
52 °F ⅜ mi 200 ft Var Var 2 kt METAR EDDG 280450Z VRB02KT 0700 R25/0800U FG BKN002 11/11 Q1022 BECMG 9999 SCT002
6:20 am
L
52 °F ½ mi 200 ft Var Var 2 kt METAR EDDG 280420Z VRB02KT 0800 R25/1000D FG BKN002 11/11 Q1022 BECMG 9999 SCT002
5:50 am
L
52 °F ½ mi - Var Var 2 kt METAR EDDG 280350Z VRB02KT 0900 R25/1500U FG SCT002 SCT042 11/11 Q1022 BECMG 9999
5:20 am
L
52 °F ½ mi 4,200 ft 130° 130° 3 kt METAR EDDG 280320Z 13003KT 080V170 0900 R25/1600D FG FEW002 BKN042 11/11 Q1022 TEMPO 0400
4:50 am
L
52 °F ½ mi - 120° 120° 3 kt METAR EDDG 280250Z 12003KT 080V160 0800 R25/1300D FG FEW002 SCT042 11/11 Q1021 TEMPO 0400
4:20 am
L
50 °F ½ mi - Var Var 2 kt METAR EDDG 280220Z VRB02KT 0900 R25/1000N FG FEW002 10/10 Q1021 TEMPO 0400
3:50 am
M
52 °F 3¾ mi - Var Var 2 kt METAR EDDG 280150Z VRB02KT 6000 0900NE R25/1800D BCFG NSC 11/11 Q1021 TEMPO 0900 FG
3:20 am
V
50 °F 5 mi - Var Var 2 kt METAR EDDG 280120Z VRB02KT 8000 0600NW R25/0550D BCFG NSC 10/10 Q1021 TEMPO 0900 FG
2:50 am
V
54 °F 5 mi - Var Var 2 kt METAR EDDG 280050Z VRB02KT 8000 0800NW R25/1200U BCFG NSC 12/11 Q1020 TEMPO 0900 FG
2:20 am
V
55 °F 5 mi - 220° 220° 4 kt METAR EDDG 280020Z 22004KT 8000 NSC 13/13 Q1020 NOSIG
1:50 am
V
55 °F 5⅝ mi - 230° 230° 4 kt METAR EDDG 272350Z 23004KT 200V260 9000 NSC 13/12 Q1020 NOSIG
1:20 am
V
57 °F 6¼ mi+ - 220° 220° 4 kt METAR EDDG 272320Z 22004KT 190V250 CAVOK 14/13 Q1020 NOSIG
12:50 am
V
57 °F 6¼ mi+ - 230° 230° 5 kt METAR EDDG 272250Z 23005KT 190V250 CAVOK 14/13 Q1020 NOSIG
12:20 am
V
57 °F 6¼ mi+ - 250° 250° 5 kt METAR EDDG 272220Z 25005KT CAVOK 14/13 Q1020 NOSIG

June 27, 2022

Time Code Weather Temp. Visibility Ceiling Wind METAR/SPECI
11:50 pm
V
57 °F 6¼ mi+ - 250° 250° 5 kt METAR EDDG 272150Z 25005KT CAVOK 14/13 Q1020 NOSIG
Older data

Download our app

Easy access to all aviation weather on your mobile phone and tablet.
With many features not available on the website, like offline support and a personal airport list.

We and third parties follow your internet behavior on our website with cookies. If you continue, we assume you agree with our cookie policy. Learn more